createdAt,value
2019-03-31T00:01:07.679Z,78.80
2019-03-31T00:01:55.458Z,79.00
2019-03-31T00:02:54.473Z,78.83
2019-03-31T00:03:54.436Z,78.83
2019-03-31T00:04:54.425Z,79.55
2019-03-31T00:05:54.415Z,79.45
2019-03-31T00:06:54.403Z,79.66
2019-03-31T00:07:54.415Z,79.76
2019-03-31T00:08:54.394Z,79.25
2019-03-31T00:09:54.405Z,79.55
2019-03-31T00:10:54.358Z,79.76
2019-03-31T00:11:54.347Z,79.86
2019-03-31T00:12:54.336Z,79.55
2019-03-31T00:13:54.325Z,79.45
2019-03-31T00:14:54.346Z,80.07
2019-03-31T00:15:54.308Z,79.76
2019-03-31T00:16:54.298Z,79.55
2019-03-31T00:17:54.284Z,79.25
2019-03-31T00:18:54.270Z,79.66
2019-03-31T00:19:54.287Z,79.76
2019-03-31T00:20:54.246Z,79.04
2019-03-31T00:21:54.274Z,78.94
2019-03-31T00:22:54.248Z,78.73
2019-03-31T00:23:54.213Z,78.73
2019-03-31T00:24:54.205Z,79.14
2019-03-31T00:25:54.195Z,79.45
2019-03-31T00:26:54.178Z,79.55
2019-03-31T00:27:54.274Z,79.59
2019-03-31T00:28:54.159Z,79.59
2019-03-31T00:29:54.147Z,80.00
2019-03-31T00:30:54.134Z,80.42
2019-03-31T00:31:54.124Z,80.62
2019-03-31T00:32:54.138Z,79.90
2019-03-31T00:33:54.100Z,79.69
2019-03-31T00:34:54.119Z,79.76
2019-03-31T00:35:54.082Z,80.00
2019-03-31T00:36:54.103Z,79.80
2019-03-31T00:37:54.059Z,79.80
2019-03-31T00:38:54.046Z,79.59
2019-03-31T00:39:54.037Z,79.80
2019-03-31T00:40:54.021Z,79.69
2019-03-31T00:41:54.037Z,80.21
2019-03-31T00:42:54.010Z,80.42
2019-03-31T00:43:53.990Z,80.42
2019-03-31T00:44:53.980Z,80.42
2019-03-31T00:45:53.965Z,80.87
2019-03-31T00:46:53.983Z,81.18
2019-03-31T00:47:53.964Z,81.38
2019-03-31T00:48:53.931Z,81.18
2019-03-31T00:49:53.930Z,82.35
2019-03-31T00:50:53.913Z,82.04
2019-03-31T00:51:53.899Z,82.25
2019-03-31T00:52:53.921Z,82.15
2019-03-31T00:53:53.907Z,82.60
2019-03-31T00:54:53.870Z,82.50
2019-03-31T00:55:53.858Z,82.08
2019-03-31T00:56:53.844Z,81.98
2019-03-31T00:57:53.922Z,81.94
2019-03-31T00:58:53.826Z,82.50
2019-03-31T00:59:53.830Z,82.08
2019-03-31T01:00:53.799Z,82.39
2019-03-31T01:01:53.797Z,82.18
2019-03-31T01:02:53.775Z,82.39
2019-03-31T01:03:53.762Z,83.05
2019-03-31T01:04:53.811Z,83.32
2019-03-31T01:05:53.767Z,83.36
2019-03-31T01:06:53.757Z,83.36
2019-03-31T01:07:53.720Z,83.25
2019-03-31T01:08:53.707Z,83.46
2019-03-31T01:09:53.699Z,83.25
2019-03-31T01:10:53.714Z,83.46
2019-03-31T01:11:53.674Z,83.77
2019-03-31T01:12:53.686Z,83.87
2019-03-31T01:13:53.681Z,84.12
2019-03-31T01:14:53.641Z,83.71
2019-03-31T01:15:53.653Z,83.81
2019-03-31T01:16:53.620Z,84.64
2019-03-31T01:17:53.608Z,84.84
2019-03-31T01:18:53.598Z,84.74
2019-03-31T01:19:53.598Z,84.95
2019-03-31T01:20:53.607Z,85.05
2019-03-31T01:21:53.561Z,85.05
2019-03-31T01:22:53.564Z,85.30
2019-03-31T01:23:53.545Z,84.88
2019-03-31T01:24:53.549Z,85.09
2019-03-31T01:25:53.555Z,84.99
2019-03-31T01:26:53.507Z,85.09
2019-03-31T01:27:53.494Z,84.47
2019-03-31T01:28:53.524Z,84.47
2019-03-31T01:29:53.475Z,85.61
2019-03-31T01:30:53.480Z,85.50
2019-03-31T01:31:53.456Z,84.99
2019-03-31T01:32:53.463Z,85.09
2019-03-31T01:33:53.427Z,85.55
2019-03-31T01:34:53.454Z,85.09
2019-03-31T01:35:53.405Z,85.24
2019-03-31T01:36:53.395Z,85.34
2019-03-31T01:37:53.414Z,85.19
2019-03-31T01:38:53.397Z,85.44
2019-03-31T01:39:53.363Z,85.24
2019-03-31T01:40:53.384Z,85.55
2019-03-31T01:41:53.342Z,85.55
2019-03-31T01:42:53.352Z,85.44
2019-03-31T01:43:53.771Z,85.86
2019-03-31T01:44:53.309Z,85.65
2019-03-31T01:45:53.317Z,85.86
2019-03-31T01:46:53.285Z,85.75
2019-03-31T01:47:53.271Z,86.17
2019-03-31T01:48:53.261Z,85.86
2019-03-31T01:49:53.256Z,85.79
2019-03-31T01:50:53.270Z,85.69
2019-03-31T01:51:53.232Z,86.27
2019-03-31T01:52:53.222Z,85.89
2019-03-31T01:53:53.203Z,85.89
2019-03-31T01:54:53.210Z,85.79
2019-03-31T01:55:53.274Z,85.79
2019-03-31T01:56:53.174Z,85.79
2019-03-31T01:57:53.166Z,86.10
2019-03-31T01:58:53.165Z,85.89
2019-03-31T01:59:53.190Z,86.00
2019-03-31T02:00:53.125Z,85.89
2019-03-31T02:02:04.014Z,85.79
2019-03-31T02:02:54.102Z,86.31
2019-03-31T02:03:53.786Z,87.14
2019-03-31T02:04:53.129Z,86.62
2019-03-31T02:05:53.093Z,86.21
2019-03-31T02:06:53.059Z,86.31
2019-03-31T02:07:53.264Z,86.62
2019-03-31T02:08:53.034Z,86.31
2019-03-31T02:09:53.327Z,86.72
2019-03-31T02:10:53.014Z,86.52
2019-03-31T02:11:53.050Z,86.10
2019-03-31T02:12:53.000Z,86.15
2019-03-31T02:13:53.016Z,86.62
2019-03-31T02:14:52.969Z,87.55
2019-03-31T02:15:52.960Z,86.47
2019-03-31T02:16:52.946Z,86.79
2019-03-31T02:17:52.974Z,87.04
2019-03-31T02:18:52.951Z,86.52
2019-03-31T02:19:52.913Z,86.41
2019-03-31T02:20:52.902Z,86.62
2019-03-31T02:21:52.895Z,86.62
2019-03-31T02:22:52.887Z,86.52
2019-03-31T02:23:52.893Z,86.41
2019-03-31T02:24:52.855Z,87.14
2019-03-31T02:25:52.858Z,87.24
2019-03-31T02:26:52.835Z,87.35
2019-03-31T02:27:52.837Z,86.47
2019-03-31T02:28:52.809Z,87.10
2019-03-31T02:29:52.817Z,87.10
2019-03-31T02:30:52.814Z,86.27
2019-03-31T02:31:52.805Z,86.58
2019-03-31T02:32:52.771Z,86.37
2019-03-31T02:33:52.757Z,86.17
2019-03-31T02:34:52.746Z,86.37
2019-03-31T02:35:52.759Z,86.07
2019-03-31T02:36:52.730Z,86.17
2019-03-31T02:37:52.720Z,85.96
2019-03-31T02:38:52.709Z,85.96
2019-03-31T02:39:52.718Z,86.21
2019-03-31T02:40:52.678Z,86.10
2019-03-31T02:41:52.666Z,86.41
2019-03-31T02:42:52.715Z,86.41
2019-03-31T02:43:52.646Z,86.35
2019-03-31T02:44:52.655Z,85.83
2019-03-31T02:45:52.631Z,86.04
2019-03-31T02:46:52.610Z,86.15
2019-03-31T02:47:52.624Z,85.73
2019-03-31T02:48:52.589Z,86.45
2019-03-31T02:49:52.579Z,87.22
2019-03-31T02:50:52.581Z,87.22
2019-03-31T02:51:52.580Z,87.32
2019-03-31T02:52:52.544Z,87.12
2019-03-31T02:53:52.565Z,87.32
2019-03-31T02:54:52.549Z,87.22
2019-03-31T02:55:52.510Z,86.91
2019-03-31T02:56:52.504Z,87.43
2019-03-31T02:57:52.514Z,87.74
2019-03-31T02:58:52.482Z,87.84
2019-03-31T02:59:52.484Z,88.67
2019-03-31T03:00:52.457Z,88.57
2019-03-31T03:01:52.468Z,88.46
2019-03-31T03:02:52.430Z,88.57
2019-03-31T03:03:52.481Z,88.71
2019-03-31T03:04:52.543Z,88.09
2019-03-31T03:05:52.399Z,88.40
2019-03-31T03:06:52.401Z,88.71
2019-03-31T03:07:52.382Z,87.99
2019-03-31T03:08:52.390Z,88.09
2019-03-31T03:09:52.354Z,87.99
2019-03-31T03:10:52.418Z,88.75
2019-03-31T03:11:52.335Z,88.44
2019-03-31T03:12:52.347Z,88.54
2019-03-31T03:13:52.310Z,88.65
2019-03-31T03:14:52.313Z,89.06
2019-03-31T03:15:52.316Z,89.06
2019-03-31T03:16:52.279Z,88.96
2019-03-31T03:17:52.264Z,89.58
2019-03-31T03:18:52.252Z,89.37
2019-03-31T03:19:52.263Z,89.79
2019-03-31T03:20:52.238Z,89.89
2019-03-31T03:21:52.227Z,89.17
2019-03-31T03:22:52.207Z,89.58
2019-03-31T03:23:52.198Z,89.58
2019-03-31T03:24:52.215Z,89.79
2019-03-31T03:25:56.242Z,89.58
2019-03-31T03:26:52.172Z,90.10
2019-03-31T03:27:52.155Z,90.10
2019-03-31T03:28:52.144Z,89.89
2019-03-31T03:29:52.159Z,90.00
2019-03-31T03:30:52.206Z,89.79
2019-03-31T03:31:52.145Z,89.89
2019-03-31T03:33:13.527Z,89.89
2019-03-31T03:33:53.107Z,90.00
2019-03-31T03:34:52.095Z,90.10
2019-03-31T03:35:52.092Z,90.04
2019-03-31T03:36:52.082Z,89.89
2019-03-31T03:37:52.046Z,90.04
2019-03-31T03:38:52.028Z,89.83
2019-03-31T03:39:52.060Z,89.73
2019-03-31T03:40:52.013Z,89.73
2019-03-31T03:41:51.999Z,89.94
2019-03-31T03:42:51.985Z,89.42
2019-03-31T03:43:59.565Z,90.97
2019-03-31T03:44:53.003Z,90.45
2019-03-31T03:45:51.948Z,90.72
2019-03-31T03:46:51.962Z,90.72
2019-03-31T03:47:51.932Z,90.20
2019-03-31T03:48:51.967Z,90.31
2019-03-31T03:49:51.938Z,90.83
2019-03-31T03:50:51.900Z,90.93
2019-03-31T03:51:51.893Z,90.83
2019-03-31T03:52:51.872Z,90.41
2019-03-31T03:53:51.887Z,91.03
2019-03-31T03:54:51.882Z,91.03
2019-03-31T03:55:51.839Z,90.41
2019-03-31T03:56:51.827Z,90.87
2019-03-31T03:57:51.821Z,90.83
2019-03-31T03:58:51.805Z,90.66
2019-03-31T03:59:51.853Z,90.66
2019-03-31T04:00:51.808Z,90.41
2019-03-31T04:01:51.774Z,90.72
2019-03-31T04:02:51.765Z,90.77
2019-03-31T04:03:51.751Z,90.45
2019-03-31T04:04:51.783Z,90.45
2019-03-31T04:05:51.729Z,90.56
2019-03-31T04:06:51.736Z,90.25
2019-03-31T04:07:51.706Z,90.77
2019-03-31T04:08:51.711Z,90.50
2019-03-31T04:09:51.718Z,90.25
2019-03-31T04:10:51.672Z,90.45
2019-03-31T04:11:51.676Z,90.50
2019-03-31T04:12:51.652Z,91.28
2019-03-31T04:13:51.638Z,91.22
2019-03-31T04:14:51.658Z,91.91
2019-03-31T04:15:51.613Z,91.70
2019-03-31T04:16:51.603Z,91.49
2019-03-31T04:17:51.630Z,91.74
2019-03-31T04:18:51.598Z,91.49
2019-03-31T04:19:51.568Z,91.74
2019-03-31T04:20:51.559Z,91.74
2019-03-31T04:21:51.552Z,91.43
2019-03-31T04:22:51.559Z,91.43
2019-03-31T04:23:51.559Z,91.33
2019-03-31T04:24:51.521Z,91.49
2019-03-31T04:25:51.536Z,92.47
2019-03-31T04:26:51.497Z,92.36
2019-03-31T04:27:51.501Z,91.85
2019-03-31T04:28:51.470Z,91.33
2019-03-31T04:29:51.489Z,91.64
2019-03-31T04:30:51.447Z,91.64
2019-03-31T04:31:51.442Z,91.12
2019-03-31T04:32:51.430Z,91.43
2019-03-31T04:33:52.961Z,91.22
2019-03-31T04:34:51.428Z,91.39
2019-03-31T04:35:51.429Z,91.53
2019-03-31T04:36:51.392Z,91.70
2019-03-31T04:37:51.370Z,91.39
2019-03-31T04:38:51.366Z,92.22
2019-03-31T04:39:51.370Z,91.80
2019-03-31T04:40:51.333Z,92.63
2019-03-31T04:41:51.330Z,92.74
2019-03-31T04:42:51.316Z,92.22
2019-03-31T04:43:51.302Z,92.38
2019-03-31T04:44:51.313Z,92.07
2019-03-31T04:45:51.278Z,92.69
2019-03-31T04:46:51.286Z,92.28
2019-03-31T04:47:51.287Z,92.59
2019-03-31T04:48:51.248Z,91.86
2019-03-31T04:49:51.239Z,91.66
2019-03-31T04:50:52.214Z,91.83
2019-03-31T04:51:51.217Z,91.93
2019-03-31T04:52:51.223Z,91.41
2019-03-31T04:53:51.186Z,91.31
2019-03-31T04:54:51.178Z,91.10
2019-03-31T04:55:51.164Z,91.52
2019-03-31T04:56:51.176Z,91.58
2019-03-31T04:57:51.145Z,91.27
2019-03-31T04:58:51.159Z,91.16
2019-03-31T04:59:51.182Z,91.47
2019-03-31T05:00:51.119Z,91.68
2019-03-31T05:01:51.105Z,91.37
2019-03-31T05:02:51.089Z,90.39
2019-03-31T05:04:03.859Z,91.06
2019-03-31T05:04:52.068Z,90.81
2019-03-31T05:05:51.051Z,90.95
2019-03-31T05:06:51.077Z,90.91
2019-03-31T05:07:51.062Z,91.02
2019-03-31T05:08:51.025Z,91.02
2019-03-31T05:09:51.007Z,91.02
2019-03-31T05:10:51.003Z,90.81
2019-03-31T05:11:51.022Z,91.22
2019-03-31T05:12:50.991Z,91.39
2019-03-31T05:13:50.964Z,91.28
2019-03-31T05:14:50.954Z,90.45
2019-03-31T05:15:50.949Z,90.45
2019-03-31T05:16:50.963Z,91.28
2019-03-31T05:17:50.943Z,90.56
2019-03-31T05:18:50.908Z,90.35
2019-03-31T05:19:50.897Z,90.56
2019-03-31T05:20:50.910Z,90.35
2019-03-31T05:21:50.881Z,90.35
2019-03-31T05:22:52.820Z,90.56
2019-03-31T05:23:50.911Z,90.41
2019-03-31T05:24:50.849Z,90.72
2019-03-31T05:25:50.833Z,90.83
2019-03-31T05:26:50.847Z,90.62
2019-03-31T05:27:50.810Z,90.83
2019-03-31T05:28:50.803Z,90.83
2019-03-31T05:29:50.790Z,90.83
2019-03-31T05:30:50.805Z,90.83
2019-03-31T05:31:50.769Z,90.00
2019-03-31T05:32:50.750Z,90.10
2019-03-31T05:33:50.763Z,89.89
2019-03-31T05:34:50.728Z,89.89
2019-03-31T05:35:50.724Z,89.79
2019-03-31T05:36:50.743Z,89.07
2019-03-31T05:37:51.590Z,89.07
2019-03-31T05:38:50.686Z,89.17
2019-03-31T05:39:50.670Z,89.69
2019-03-31T05:40:50.660Z,89.52
2019-03-31T05:41:50.674Z,89.38
2019-03-31T05:42:50.641Z,89.07
2019-03-31T05:44:04.802Z,89.28
2019-03-31T05:44:51.641Z,89.28
2019-03-31T05:45:52.464Z,89.28
2019-03-31T05:46:50.593Z,89.69
2019-03-31T05:47:50.582Z,88.96
2019-03-31T05:48:50.604Z,89.17
2019-03-31T05:49:50.561Z,89.54
2019-03-31T05:50:50.555Z,89.75
2019-03-31T05:51:50.538Z,89.75
2019-03-31T05:52:50.526Z,88.92
2019-03-31T05:53:50.533Z,89.19
2019-03-31T05:54:50.508Z,89.40
2019-03-31T05:55:50.500Z,88.51
2019-03-31T05:56:50.481Z,88.57
2019-03-31T05:57:50.496Z,88.67
2019-03-31T05:58:50.483Z,88.26
2019-03-31T05:59:50.447Z,88.36
2019-03-31T06:00:50.440Z,88.46
2019-03-31T06:01:50.456Z,88.26
2019-03-31T06:02:50.418Z,88.78
2019-03-31T06:03:50.401Z,88.57
2019-03-31T06:04:50.391Z,88.06
2019-03-31T06:05:50.403Z,87.95
2019-03-31T06:06:50.372Z,87.60
2019-03-31T06:07:50.357Z,87.39
2019-03-31T06:08:50.351Z,86.77
2019-03-31T06:09:50.345Z,86.57
2019-03-31T06:10:50.393Z,87.18
2019-03-31T06:11:53.178Z,87.60
2019-03-31T06:12:50.328Z,87.60
2019-03-31T06:13:50.300Z,88.01
2019-03-31T06:14:50.283Z,87.91
2019-03-31T06:15:50.292Z,88.32
2019-03-31T06:16:50.258Z,88.43
2019-03-31T06:17:50.397Z,88.53
2019-03-31T06:18:50.243Z,88.39
2019-03-31T06:19:50.228Z,88.70
2019-03-31T06:20:50.378Z,88.28
2019-03-31T06:21:50.200Z,88.39
2019-03-31T06:22:50.189Z,87.46
2019-03-31T06:23:50.201Z,87.97
2019-03-31T06:24:50.172Z,87.66
2019-03-31T06:25:50.184Z,87.46
2019-03-31T06:26:50.151Z,87.15
2019-03-31T06:27:50.134Z,87.56
2019-03-31T06:28:50.188Z,87.25
2019-03-31T06:29:50.155Z,86.63
2019-03-31T06:30:50.102Z,86.73
2019-03-31T06:31:50.122Z,87.00
2019-03-31T06:32:50.079Z,86.38
2019-03-31T06:33:50.090Z,86.49
2019-03-31T06:34:50.092Z,86.59
2019-03-31T06:35:50.048Z,87.00
2019-03-31T06:36:50.032Z,87.21
2019-03-31T06:37:50.022Z,86.86
2019-03-31T06:38:50.009Z,87.37
2019-03-31T06:39:50.034Z,87.48
2019-03-31T06:40:49.991Z,87.58
2019-03-31T06:41:50.014Z,87.48
2019-03-31T06:42:49.967Z,87.23
2019-03-31T06:43:49.955Z,88.37
2019-03-31T06:44:49.945Z,88.32
2019-03-31T06:45:49.936Z,88.12
2019-03-31T06:46:49.955Z,88.22
2019-03-31T06:47:49.910Z,88.59
2019-03-31T06:48:49.901Z,87.46
2019-03-31T06:49:49.895Z,87.77
2019-03-31T06:50:49.877Z,86.90
2019-03-31T06:51:49.896Z,86.70
2019-03-31T06:52:49.872Z,85.42
2019-03-31T06:53:49.845Z,85.63
2019-03-31T06:54:49.848Z,85.31
2019-03-31T06:55:49.819Z,85.11
2019-03-31T06:56:49.809Z,84.70
2019-03-31T06:57:49.821Z,85.01
2019-03-31T06:58:49.796Z,84.66
2019-03-31T06:59:49.775Z,84.91
2019-03-31T07:00:49.766Z,84.91
2019-03-31T07:01:49.752Z,84.66
2019-03-31T07:02:49.771Z,84.91
2019-03-31T07:03:49.733Z,84.56
2019-03-31T07:05:00.496Z,85.11
2019-03-31T07:05:50.706Z,84.70
2019-03-31T07:06:49.697Z,85.11
2019-03-31T07:07:49.740Z,85.11
2019-03-31T07:08:49.678Z,84.91
2019-03-31T07:09:49.662Z,85.79
2019-03-31T07:10:49.688Z,84.91
2019-03-31T07:11:49.660Z,84.70
2019-03-31T07:12:49.629Z,84.70
2019-03-31T07:13:49.626Z,84.91
2019-03-31T07:14:49.606Z,85.01
2019-03-31T07:15:49.620Z,85.01
2019-03-31T07:16:49.613Z,85.42
2019-03-31T07:17:49.573Z,84.91
2019-03-31T07:18:49.561Z,85.01
2019-03-31T07:19:49.550Z,85.83
2019-03-31T07:20:49.564Z,85.42
2019-03-31T07:21:49.564Z,84.91
2019-03-31T07:22:49.533Z,85.22
2019-03-31T07:23:49.516Z,85.42
2019-03-31T07:24:49.495Z,85.42
2019-03-31T07:25:49.484Z,85.83
2019-03-31T07:26:49.495Z,85.31
2019-03-31T07:27:49.482Z,85.94
2019-03-31T07:28:49.451Z,85.31
2019-03-31T07:29:49.447Z,85.28
2019-03-31T07:30:49.451Z,84.97
2019-03-31T07:31:49.416Z,85.01
2019-03-31T07:32:49.431Z,84.87
2019-03-31T07:33:49.396Z,84.91
2019-03-31T07:34:49.382Z,85.17
2019-03-31T07:35:49.402Z,85.17
2019-03-31T07:36:49.365Z,85.59
2019-03-31T07:37:49.403Z,84.87
2019-03-31T07:38:49.449Z,84.77
2019-03-31T07:39:49.369Z,84.87
2019-03-31T07:40:49.718Z,84.56
2019-03-31T07:41:49.622Z,84.31
2019-03-31T07:42:51.006Z,84.83
2019-03-31T07:43:49.311Z,84.83
2019-03-31T07:44:49.271Z,84.93
2019-03-31T07:45:49.256Z,85.07
2019-03-31T07:46:49.247Z,84.93
2019-03-31T07:47:49.242Z,84.83
2019-03-31T07:48:49.246Z,84.66
2019-03-31T07:49:49.212Z,84.80
2019-03-31T07:50:49.201Z,84.91
2019-03-31T07:51:49.211Z,85.69
2019-03-31T07:52:49.178Z,85.69
2019-03-31T07:53:49.172Z,85.22
2019-03-31T07:54:49.240Z,85.42
2019-03-31T07:55:49.172Z,85.79
2019-03-31T07:56:49.134Z,84.97
2019-03-31T07:57:49.141Z,85.49
2019-03-31T07:58:49.109Z,85.59
2019-03-31T07:59:49.117Z,85.59
2019-03-31T08:00:49.117Z,85.69
2019-03-31T08:01:49.095Z,85.38
2019-03-31T08:02:49.066Z,85.94
2019-03-31T08:03:49.056Z,85.79
2019-03-31T08:04:49.042Z,86.61
2019-03-31T08:05:49.063Z,86.00
2019-03-31T08:06:49.020Z,85.79
2019-03-31T08:07:49.031Z,85.14
2019-03-31T08:08:49.000Z,84.72
2019-03-31T08:09:48.997Z,84.42
2019-03-31T08:10:48.998Z,84.52
2019-03-31T08:11:48.966Z,84.11
2019-03-31T08:12:48.974Z,85.14
2019-03-31T08:13:48.964Z,84.21
2019-03-31T08:14:48.930Z,83.90
2019-03-31T08:15:48.921Z,83.86
2019-03-31T08:16:48.915Z,83.45
2019-03-31T08:17:48.895Z,83.31
2019-03-31T08:18:48.906Z,82.69
2019-03-31T08:19:48.898Z,81.32
2019-03-31T08:20:48.862Z,81.21
2019-03-31T08:21:48.859Z,81.21
2019-03-31T08:22:48.862Z,80.87
2019-03-31T08:23:48.828Z,80.35
2019-03-31T08:24:48.833Z,79.63
2019-03-31T08:25:48.832Z,79.47
2019-03-31T08:26:48.794Z,80.15
2019-03-31T08:27:48.787Z,79.70
2019-03-31T08:28:48.825Z,79.53
2019-03-31T08:29:59.888Z,78.78
2019-03-31T08:30:49.774Z,78.36
2019-03-31T08:31:48.740Z,78.71
2019-03-31T08:32:48.763Z,77.44
2019-03-31T08:33:48.715Z,77.44
2019-03-31T08:34:48.709Z,77.34
2019-03-31T08:35:48.723Z,77.55
2019-03-31T08:36:48.687Z,78.33
2019-03-31T08:37:48.670Z,76.89
2019-03-31T08:38:48.659Z,76.48
2019-03-31T08:39:48.660Z,77.00
2019-03-31T08:40:48.677Z,76.07
2019-03-31T08:41:48.627Z,76.28
2019-03-31T08:42:48.623Z,76.38
2019-03-31T08:43:48.602Z,77.40
2019-03-31T08:44:48.595Z,76.96
2019-03-31T08:45:48.613Z,76.24
2019-03-31T08:46:48.568Z,74.91
2019-03-31T08:47:48.577Z,75.35
2019-03-31T08:48:48.569Z,76.48
2019-03-31T08:49:48.569Z,77.30
2019-03-31T08:50:48.569Z,77.13
2019-03-31T08:51:48.512Z,77.44
2019-03-31T08:52:48.508Z,77.95
2019-03-31T08:53:48.490Z,77.03
2019-03-31T08:54:48.507Z,78.16
2019-03-31T08:55:48.518Z,78.33
2019-03-31T08:56:48.468Z,78.92
2019-03-31T08:57:48.449Z,78.47
2019-03-31T08:58:48.472Z,77.06
2019-03-31T08:59:48.423Z,77.48
2019-03-31T09:00:48.410Z,78.09
2019-03-31T09:01:48.434Z,76.93
2019-03-31T09:02:48.423Z,76.51
2019-03-31T09:03:48.386Z,76.93
2019-03-31T09:04:48.373Z,76.89
2019-03-31T09:06:00.906Z,75.15
2019-03-31T09:06:49.407Z,74.53
2019-03-31T09:07:48.334Z,76.14
2019-03-31T09:08:48.320Z,74.19
2019-03-31T09:09:48.322Z,75.01
2019-03-31T09:10:48.328Z,74.80
2019-03-31T09:11:48.313Z,74.94
2019-03-31T09:12:48.757Z,73.81
2019-03-31T09:13:48.296Z,74.39
2019-03-31T09:14:48.256Z,73.06
2019-03-31T09:15:48.287Z,72.14
2019-03-31T09:16:48.234Z,73.78
2019-03-31T09:17:48.286Z,71.80
2019-03-31T09:18:48.217Z,72.17
2019-03-31T09:19:48.254Z,71.22
2019-03-31T09:20:48.211Z,70.09
2019-03-31T09:21:48.214Z,70.26
2019-03-31T09:22:48.180Z,70.26
2019-03-31T09:23:48.160Z,69.55
2019-03-31T09:24:48.162Z,70.50
2019-03-31T09:25:48.130Z,71.83
2019-03-31T09:26:48.174Z,71.19
2019-03-31T09:27:48.107Z,69.75
2019-03-31T09:28:48.151Z,68.80
2019-03-31T09:29:48.094Z,68.32
2019-03-31T09:30:48.078Z,69.17
2019-03-31T09:31:48.076Z,69.85
2019-03-31T09:32:48.059Z,69.65
2019-03-31T09:33:48.110Z,69.24
2019-03-31T09:34:48.031Z,69.45
2019-03-31T09:35:48.024Z,68.52
2019-03-31T09:36:48.003Z,68.26
2019-03-31T09:37:48.049Z,67.07
2019-03-31T09:38:48.595Z,67.34
2019-03-31T09:39:47.969Z,68.05
2019-03-31T09:40:47.990Z,67.95
2019-03-31T09:41:47.970Z,67.41
2019-03-31T09:42:47.937Z,65.98
2019-03-31T09:43:47.948Z,67.00
2019-03-31T09:44:47.915Z,67.21
2019-03-31T09:45:47.919Z,66.36
2019-03-31T09:46:47.890Z,67.03
2019-03-31T09:47:47.907Z,68.70
2019-03-31T09:48:47.871Z,68.49
2019-03-31T09:49:47.862Z,69.04
2019-03-31T09:50:47.846Z,68.30
2019-03-31T09:51:47.946Z,67.04
2019-03-31T09:52:47.889Z,65.88
2019-03-31T09:53:47.818Z,66.17
2019-03-31T09:54:47.801Z,69.04
2019-03-31T09:55:47.793Z,67.30
2019-03-31T09:56:47.778Z,66.75
2019-03-31T09:57:47.803Z,66.35
2019-03-31T09:58:47.777Z,66.72
2019-03-31T09:59:47.751Z,65.98
2019-03-31T10:00:47.734Z,65.64
2019-03-31T10:01:47.720Z,65.13
2019-03-31T10:02:47.710Z,65.06
2019-03-31T10:03:47.731Z,65.67
2019-03-31T10:04:47.686Z,65.91
2019-03-31T10:05:48.380Z,67.16
2019-03-31T10:06:47.663Z,66.25
2019-03-31T10:07:47.668Z,67.27
2019-03-31T10:08:47.668Z,67.47
2019-03-31T10:09:47.656Z,67.40
2019-03-31T10:10:47.645Z,67.77
2019-03-31T10:11:47.609Z,69.75
2019-03-31T10:12:47.619Z,69.95
2019-03-31T10:13:47.607Z,69.24
2019-03-31T10:14:47.574Z,68.49
2019-03-31T10:15:47.562Z,68.59
2019-03-31T10:16:47.560Z,69.51
2019-03-31T10:17:47.539Z,68.79
2019-03-31T10:18:47.553Z,68.90
2019-03-31T10:19:47.516Z,68.69
2019-03-31T10:20:47.507Z,69.00
2019-03-31T10:21:47.495Z,68.41
2019-03-31T10:22:47.526Z,67.57
2019-03-31T10:23:47.503Z,67.16
2019-03-31T10:24:47.459Z,67.57
2019-03-31T10:25:47.520Z,67.16
2019-03-31T10:26:47.439Z,67.57
2019-03-31T10:27:47.428Z,67.77
2019-03-31T10:28:47.449Z,67.26
2019-03-31T10:29:47.427Z,69.04
2019-03-31T10:30:47.430Z,65.70
2019-03-31T10:31:47.412Z,65.30
2019-03-31T10:32:47.370Z,64.48
2019-03-31T10:33:47.361Z,65.50
2019-03-31T10:34:47.348Z,66.35
2019-03-31T10:35:47.415Z,65.63
2019-03-31T10:36:47.349Z,64.81
2019-03-31T10:37:47.314Z,65.56
2019-03-31T10:38:47.308Z,66.31
2019-03-31T10:39:47.328Z,66.99
2019-03-31T10:40:47.283Z,66.58
2019-03-31T10:41:47.299Z,67.16
2019-03-31T10:42:47.257Z,66.11
2019-03-31T10:43:47.245Z,65.43
2019-03-31T10:44:47.268Z,66.51
2019-03-31T10:45:47.224Z,67.43
2019-03-31T10:46:47.212Z,66.61
2019-03-31T10:47:47.235Z,67.23
2019-03-31T10:48:47.189Z,66.99
2019-03-31T10:49:47.192Z,67.54
2019-03-31T10:50:47.169Z,68.25
2019-03-31T10:51:47.154Z,68.87
2019-03-31T10:52:47.252Z,69.34
2019-03-31T10:53:47.136Z,67.13
2019-03-31T10:54:47.121Z,67.19
2019-03-31T10:55:47.151Z,66.58
2019-03-31T10:56:47.263Z,66.48
2019-03-31T10:57:47.093Z,67.50
2019-03-31T10:58:47.124Z,67.30
2019-03-31T10:59:47.067Z,67.16
2019-03-31T11:00:47.052Z,67.07
2019-03-31T11:01:47.165Z,67.16
2019-03-31T11:02:47.042Z,66.17
2019-03-31T11:03:47.027Z,67.19
2019-03-31T11:04:47.008Z,65.43
2019-03-31T11:05:47.045Z,67.37
2019-03-31T11:06:58.452Z,65.70
2019-03-31T11:07:47.999Z,65.43
2019-03-31T11:08:46.965Z,65.09
2019-03-31T11:09:46.949Z,65.19
2019-03-31T11:10:46.974Z,64.68
2019-03-31T11:11:46.932Z,65.50
2019-03-31T11:12:46.917Z,65.50
2019-03-31T11:13:46.946Z,65.80
2019-03-31T11:14:46.893Z,65.63
2019-03-31T11:15:46.912Z,65.15
2019-03-31T11:16:46.872Z,66.58
2019-03-31T11:17:46.876Z,67.27
2019-03-31T11:18:46.847Z,66.89
2019-03-31T11:19:46.837Z,66.78
2019-03-31T11:20:46.848Z,68.12
2019-03-31T11:21:46.857Z,68.12
2019-03-31T11:22:46.807Z,67.02
2019-03-31T11:23:46.830Z,67.33
2019-03-31T11:24:46.787Z,69.61
2019-03-31T11:25:46.802Z,68.49
2019-03-31T11:26:46.788Z,67.60
2019-03-31T11:27:46.748Z,69.34
2019-03-31T11:28:46.742Z,69.85
2019-03-31T11:29:46.759Z,69.44
2019-03-31T11:30:46.729Z,69.85
2019-03-31T11:31:46.743Z,69.65
2019-03-31T11:32:46.701Z,69.10
2019-03-31T11:33:46.678Z,69.71
2019-03-31T11:34:46.679Z,69.92
2019-03-31T11:35:46.673Z,69.65
2019-03-31T11:36:46.644Z,69.65
2019-03-31T11:37:46.666Z,70.87
2019-03-31T11:38:46.645Z,69.95
2019-03-31T11:39:46.611Z,70.23
2019-03-31T11:40:46.600Z,68.59
2019-03-31T11:41:46.588Z,69.95
2019-03-31T11:42:46.603Z,69.71
2019-03-31T11:43:46.591Z,69.00
2019-03-31T11:44:46.558Z,69.65
2019-03-31T11:45:46.565Z,68.79
2019-03-31T11:46:46.535Z,69.31
2019-03-31T11:47:46.566Z,69.41
2019-03-31T11:48:46.517Z,70.29
2019-03-31T11:49:46.500Z,68.87
2019-03-31T11:50:46.488Z,69.10
2019-03-31T11:51:46.475Z,69.31
2019-03-31T11:52:46.502Z,69.31
2019-03-31T11:53:46.456Z,69.82
2019-03-31T11:54:46.447Z,69.38
2019-03-31T11:55:46.436Z,68.46
2019-03-31T11:56:46.420Z,69.58
2019-03-31T11:57:46.432Z,69.79
2019-03-31T11:58:46.398Z,67.54
2019-03-31T11:59:49.521Z,67.57
2019-03-31T12:00:46.404Z,69.31
2019-03-31T12:01:46.363Z,69.41
2019-03-31T12:02:46.357Z,68.69
2019-03-31T12:03:46.366Z,68.38
2019-03-31T12:04:46.340Z,67.80
2019-03-31T12:05:46.325Z,68.73
2019-03-31T12:06:46.331Z,69.00
2019-03-31T12:07:47.486Z,69.61
2019-03-31T12:08:46.285Z,69.41
2019-03-31T12:09:46.274Z,69.17
2019-03-31T12:10:46.263Z,68.73
2019-03-31T12:11:46.340Z,66.61
2019-03-31T12:12:46.241Z,67.02
2019-03-31T12:13:46.228Z,67.40
2019-03-31T12:14:59.570Z,67.24
2019-03-31T12:15:47.229Z,66.11
2019-03-31T12:16:46.198Z,66.01
2019-03-31T12:17:46.186Z,65.53
2019-03-31T12:18:46.203Z,65.43
2019-03-31T12:19:48.705Z,66.07
2019-03-31T12:20:46.151Z,65.39
2019-03-31T12:21:46.142Z,66.31
2019-03-31T12:22:46.173Z,65.46
2019-03-31T12:23:46.155Z,66.14
2019-03-31T12:24:46.104Z,65.40
2019-03-31T12:25:46.094Z,63.76
2019-03-31T12:26:46.083Z,64.48
2019-03-31T12:27:46.113Z,64.48
2019-03-31T12:28:46.058Z,63.35
2019-03-31T12:29:46.055Z,63.63
2019-03-31T12:30:46.037Z,62.84
2019-03-31T12:31:46.028Z,62.84
2019-03-31T12:32:46.037Z,62.66
2019-03-31T12:33:46.001Z,62.70
2019-03-31T12:34:46.023Z,63.28
2019-03-31T12:35:45.992Z,63.79
2019-03-31T12:36:45.970Z,63.56
2019-03-31T12:37:45.956Z,62.23
2019-03-31T12:38:46.026Z,62.95
2019-03-31T12:39:45.937Z,62.36
2019-03-31T12:40:45.932Z,63.39
2019-03-31T12:41:45.910Z,62.98
2019-03-31T12:42:45.961Z,62.18
2019-03-31T12:43:45.888Z,64.30
2019-03-31T12:44:45.878Z,63.45
2019-03-31T12:45:45.870Z,62.87
2019-03-31T12:46:45.930Z,64.51
2019-03-31T12:47:45.856Z,64.13
2019-03-31T12:48:45.856Z,63.85
2019-03-31T12:49:45.837Z,64.43
2019-03-31T12:50:45.813Z,65.05
2019-03-31T12:51:45.873Z,64.43
2019-03-31T12:52:47.464Z,64.10